All
Indio-Faith Airport (Carrizo Springs, TX) 2XS2 Weather
There is no TAF data available at 2XS2 or any nearby airports.
There is no METAR data available at 2XS2. Showing METAR data for KCZT (27 mi NE).
Recent CZT METAR history (no data for 2XS2)
| Date | Time (CDT) | Flight Rules | Wind Dir. | Speed | Type | Height AGL (ft) | Visibility | Temp (°C) | Temp (°F) | Dew Point (°C) | Dew Point (°F) | Rel. Humid. | Pressure | Density Altitude | Remarks |
|---|---|---|---|---|---|---|---|---|---|---|---|---|---|---|---|
| 02-May | 11:15AM | VFR | 60° | 8 kt | 10 miles | 20° | 68° | 8° | 46° | 46% | 30.22 in Hg | 898 ft | |||
| 02-May | 10:55AM | VFR | 50° | 6 kt | 10 miles | 19° | 66° | 8° | 46° | 49% | 30.22 in Hg | 778 ft | |||
| 02-May | 10:35AM | VFR | 50° | 8 kt | 10 miles | 18° | 64° | 8° | 46° | 52% | 30.22 in Hg | 658 ft | |||
| 02-May | 10:15AM | VFR | 30° | 6 kt | 10 miles | 17° | 62° | 8° | 46° | 55% | 30.21 in Hg | 548 ft | |||
| 02-May | 09:55AM | VFR | 20° | 6 kt | 10 miles | 17° | 62° | 8° | 46° | 55% | 30.20 in Hg | 558 ft | |||
| 02-May | 09:35AM | VFR | 30° | 9 kt | 10 miles | 16° | 60° | 8° | 46° | 59% | 30.20 in Hg | 438 ft | |||
| 02-May | 09:15AM | VFR | 30° | 7 kt | 10 miles | 15° | 59° | 8° | 46° | 63% | 30.20 in Hg | 318 ft | |||
| 02-May | 08:55AM | VFR | 20° | 6 kt | 10 miles | 15° | 59° | 9° | 48° | 67% | 30.19 in Hg | 328 ft | |||
| 02-May | 08:15AM | VFR | 360° | 3 kt | 10 miles | 13° | 55° | 12° | 53° | 94% | 30.18 in Hg | 98 ft | |||
| 02-May | 07:55AM | VFR | 350° | 5 kt | 10 miles | 13° | 55° | 12° | 53° | 94% | 30.17 in Hg | 108 ft | |||
| 02-May | 07:35AM | VFR | 330° | 4 kt | 10 miles | 12° | 53° | 12° | 53° | 100% | 30.17 in Hg | -12 ft | |||
| 02-May | 07:15AM | VFR | 330° | 3 kt | 10 miles | 12° | 53° | 12° | 53° | 100% | 30.16 in Hg | -2 ft | |||
| 02-May | 06:55AM | VFR | 330° | 4 kt | 10 miles | 12° | 53° | 12° | 53° | 100% | 30.15 in Hg | 8 ft | |||
| 02-May | 06:35AM | VFR | 350° | 4 kt | 10 miles | 12° | 53° | 12° | 53° | 100% | 30.14 in Hg | 18 ft | |||
| 02-May | 06:15AM | VFR | 340° | 3 kt | 10 miles | 12° | 53° | 12° | 53° | 100% | 30.14 in Hg | 18 ft | |||
| 02-May | 05:55AM | VFR | 350° | 4 kt | 10 miles | 12° | 53° | 12° | 53° | 100% | 30.13 in Hg | 28 ft | |||
| 02-May | 05:15AM | VFR | 350° | 3 kt | 10 miles | 12° | 53° | 12° | 53° | 100% | 30.12 in Hg | 38 ft | |||
| 02-May | 04:55AM | VFR | 340° | 3 kt | 10 miles | 12° | 53° | 12° | 53° | 100% | 30.13 in Hg | 28 ft | |||
| 02-May | 04:35AM | VFR | 290° | 3 kt | 10 miles | 12° | 53° | 12° | 53° | 100% | 30.13 in Hg | 28 ft | |||
| 02-May | 04:15AM | VFR | Calm | 10 miles | 12° | 53° | 12° | 53° | 100% | 30.12 in Hg | 38 ft | ||||
| 02-May | 03:55AM | VFR | Calm | 10 miles | 12° | 53° | 10° | 50° | 88% | 30.12 in Hg | 38 ft | ||||
| 02-May | 03:15AM | VFR | 350° | 3 kt | 10 miles | 13° | 55° | 10° | 50° | 82% | 30.12 in Hg | 158 ft | |||
| 02-May | 02:55AM | VFR | 10° | 3 kt | 10 miles | 13° | 55° | 10° | 50° | 82% | 30.11 in Hg | 168 ft | |||
| 02-May | 02:35AM | VFR | 360° | 4 kt | 10 miles | 13° | 55° | 10° | 50° | 82% | 30.11 in Hg | 168 ft |
Login
| Your browser is unsupported. upgrade your browser |
